Time;durP1;ratioP1;P1;durP2;ratioP2;P2;SDS_P1;SDS_P2;PMS_P1;PMS_P2;Temp;Humidity;BMP_temperature;BMP_pressure;BME280_temperature;BME280_humidity;BME280_pressure;Samples;Min_cycle;Max_cycle;Signal;HPM_P1;HPM_P2
2023/06/25 00:02:07;;;;;;;10.73;8.02;;;19.90;99.90;;;;;;5047812;28;20036;-65
2023/06/25 00:04:32;;;;;;;12.25;8.43;;;19.80;99.90;;;;;;5050042;28;20052;-65
2023/06/25 00:06:58;;;;;;;10.70;8.48;;;19.80;99.90;;;;;;5051011;28;20497;-65
2023/06/25 00:09:24;;;;;;;10.70;7.80;;;19.80;99.90;;;;;;5051678;28;20037;-64
2023/06/25 00:11:49;;;;;;;13.35;8.60;;;19.70;99.90;;;;;;5043745;28;20034;-65
2023/06/25 00:14:15;;;;;;;10.98;8.60;;;19.70;99.90;;;;;;5044118;28;20045;-65
2023/06/25 00:16:41;;;;;;;12.02;9.15;;;19.70;99.90;;;;;;5052800;28;20587;-65
2023/06/25 00:19:07;;;;;;;12.32;9.02;;;19.70;99.90;;;;;;5049193;28;20057;-65
2023/06/25 00:21:32;;;;;;;10.43;8.25;;;19.70;99.90;;;;;;5051715;28;20029;-65
2023/06/25 00:23:58;;;;;;;12.98;9.27;;;19.70;99.90;;;;;;5043571;28;20041;-65
2023/06/25 00:26:24;;;;;;;13.60;9.10;;;19.70;99.90;;;;;;5048206;28;20103;-65
2023/06/25 00:28:50;;;;;;;11.45;8.82;;;19.70;99.90;;;;;;5036474;28;20039;-65
2023/06/25 00:31:15;;;;;;;11.65;8.52;;;19.70;99.90;;;;;;5052668;28;20040;-65
2023/06/25 00:33:44;;;;;;;12.43;9.10;;;19.60;99.90;;;;;;5052589;28;20037;-65
2023/06/25 00:36:10;;;;;;;12.30;9.48;;;19.70;99.90;;;;;;5050808;28;20040;-65
2023/06/25 00:38:38;;;;;;;13.77;9.43;;;19.60;99.90;;;;;;5037426;28;20038;-65
2023/06/25 00:41:08;;;;;;;13.43;9.50;;;19.70;99.90;;;;;;5039022;28;20079;-65
2023/06/25 00:43:34;;;;;;;13.50;9.10;;;19.60;99.90;;;;;;5051150;28;20029;-65
2023/06/25 00:46:00;;;;;;;11.30;8.43;;;19.60;99.90;;;;;;5050351;28;20099;-65
2023/06/25 00:48:27;;;;;;;14.35;9.43;;;19.60;99.90;;;;;;5032635;28;20045;-65
2023/06/25 00:50:52;;;;;;;11.02;8.48;;;19.50;99.90;;;;;;5037796;28;20033;-65
2023/06/25 00:53:19;;;;;;;12.75;9.20;;;19.50;99.90;;;;;;5047880;28;20044;-65
2023/06/25 00:55:50;;;;;;;12.80;9.43;;;19.40;99.90;;;;;;5032545;28;20037;-65
2023/06/25 00:58:20;;;;;;;11.77;8.48;;;19.40;99.90;;;;;;5046493;28;20044;-65
2023/06/25 01:00:47;;;;;;;12.90;9.38;;;19.20;99.90;;;;;;5048619;28;20036;-65
2023/06/25 01:03:27;;;;;;;14.43;9.18;;;19.20;99.90;;;;;;5051813;28;20067;-64
2023/06/25 01:06:05;;;;;;;;;;;19.20;99.90;;;;;;5052432;28;20037;-65
2023/06/25 01:08:32;;;;;;;14.15;9.25;;;19.10;99.90;;;;;;5051192;28;19924;-65
2023/06/25 01:10:58;;;;;;;13.20;9.60;;;19.10;99.90;;;;;;5034151;28;20044;-65
2023/06/25 01:13:24;;;;;;;14.73;9.77;;;19.10;99.90;;;;;;5041675;28;20398;-65
2023/06/25 01:15:49;;;;;;;13.45;9.40;;;19.10;99.90;;;;;;5051235;28;20044;-64
2023/06/25 01:18:15;;;;;;;13.43;9.25;;;19.00;99.90;;;;;;5051909;28;20059;-65
2023/06/25 01:20:41;;;;;;;14.13;9.32;;;19.00;99.90;;;;;;5049662;28;20375;-65
2023/06/25 01:23:09;;;;;;;12.68;9.45;;;19.00;99.90;;;;;;5040952;28;20037;-65
2023/06/25 01:25:38;;;;;;;14.85;10.18;;;19.00;99.90;;;;;;5043446;28;20110;-65
2023/06/25 01:28:05;;;;;;;16.25;10.43;;;19.00;99.90;;;;;;5041545;28;20029;-65
2023/06/25 01:30:31;;;;;;;16.23;10.52;;;19.00;99.90;;;;;;5045730;28;20025;-65
2023/06/25 01:32:58;;;;;;;12.82;9.82;;;19.00;99.90;;;;;;5042012;28;20600;-65
2023/06/25 01:35:25;;;;;;;15.07;10.45;;;18.90;99.90;;;;;;5044363;28;20479;-65
2023/06/25 01:37:51;;;;;;;15.32;10.73;;;18.80;99.90;;;;;;5047903;28;20033;-65
2023/06/25 01:40:16;;;;;;;14.98;10.40;;;18.90;99.90;;;;;;5049811;28;20053;-65
2023/06/25 01:42:43;;;;;;;14.88;10.57;;;18.80;99.90;;;;;;5043497;28;20041;-65
2023/06/25 01:45:11;;;;;;;15.60;10.60;;;18.80;99.90;;;;;;5050700;28;20033;-65
2023/06/25 01:47:37;;;;;;;15.93;11.10;;;18.80;99.90;;;;;;5052536;28;20075;-65
2023/06/25 01:50:06;;;;;;;15.80;11.07;;;18.90;99.90;;;;;;5057652;28;20041;-65
2023/06/25 01:52:32;;;;;;;18.73;12.75;;;18.80;99.90;;;;;;5043839;28;20069;-65
2023/06/25 01:54:58;;;;;;;16.50;11.68;;;18.80;99.90;;;;;;5049697;28;20033;-65
2023/06/25 01:57:23;;;;;;;20.10;12.23;;;18.80;99.90;;;;;;5051058;28;20083;-65
2023/06/25 01:59:49;;;;;;;17.85;12.00;;;18.70;99.90;;;;;;5058074;28;20079;-65
2023/06/25 02:02:14;;;;;;;18.38;11.63;;;18.70;99.90;;;;;;5054139;28;20020;-64
2023/06/25 02:04:40;;;;;;;17.23;11.35;;;18.70;99.90;;;;;;5051929;28;20694;-65
2023/06/25 02:07:06;;;;;;;16.75;11.70;;;18.60;99.90;;;;;;5057047;28;20087;-65
2023/06/25 02:09:32;;;;;;;19.40;12.77;;;18.60;99.90;;;;;;5057643;28;20041;-65
2023/06/25 02:11:58;;;;;;;20.02;12.52;;;18.60;99.90;;;;;;5055811;28;20078;-65
2023/06/25 02:14:23;;;;;;;20.77;13.40;;;18.60;99.90;;;;;;5052747;28;20034;-65
2023/06/25 02:16:49;;;;;;;16.13;12.32;;;18.50;99.90;;;;;;5044776;28;20029;-64
2023/06/25 02:19:14;;;;;;;19.13;12.75;;;18.50;99.90;;;;;;5054408;28;20086;-64
2023/06/25 02:21:40;;;;;;;15.73;11.68;;;18.40;99.90;;;;;;5039053;28;20140;-65
2023/06/25 02:24:06;;;;;;;15.60;11.23;;;18.50;99.90;;;;;;5056355;28;20036;-65
2023/06/25 02:26:31;;;;;;;17.38;12.15;;;18.50;99.90;;;;;;5057199;28;20043;-65
2023/06/25 02:28:57;;;;;;;17.77;12.32;;;18.40;99.90;;;;;;5058054;28;20102;-65
2023/06/25 02:31:23;;;;;;;16.38;12.35;;;18.40;99.90;;;;;;5057652;28;20095;-65
2023/06/25 02:33:48;;;;;;;18.48;11.98;;;18.40;99.90;;;;;;5052992;28;20059;-64
2023/06/25 02:36:14;;;;;;;18.95;12.88;;;18.40;99.90;;;;;;5054485;28;20444;-65
2023/06/25 02:38:39;;;;;;;19.45;12.35;;;18.40;99.90;;;;;;5056696;28;20121;-65
2023/06/25 02:41:05;;;;;;;16.45;11.88;;;18.40;99.90;;;;;;5057701;28;20032;-65
2023/06/25 02:43:31;;;;;;;18.35;13.18;;;18.30;99.90;;;;;;5055058;28;20041;-65
2023/06/25 02:45:56;;;;;;;20.23;14.02;;;18.40;99.90;;;;;;5055834;28;20523;-65
2023/06/25 02:48:22;;;;;;;21.35;13.00;;;18.30;99.90;;;;;;5052968;28;20076;-65
2023/06/25 02:50:48;;;;;;;22.35;14.73;;;18.30;99.90;;;;;;5041714;28;20422;-65
2023/06/25 02:53:14;;;;;;;19.42;12.98;;;18.30;99.90;;;;;;5057478;28;20071;-64
2023/06/25 02:55:40;;;;;;;21.95;14.77;;;18.30;99.90;;;;;;5056617;28;20486;-65
2023/06/25 02:58:06;;;;;;;21.63;14.82;;;18.30;99.90;;;;;;5054631;28;20037;-65
2023/06/25 03:00:32;;;;;;;21.55;14.35;;;18.30;99.90;;;;;;5045978;28;20112;-65
2023/06/25 03:02:57;;;;;;;19.40;13.90;;;18.40;99.90;;;;;;5053808;28;20044;-64
2023/06/25 03:05:23;;;;;;;20.40;13.23;;;18.40;99.90;;;;;;5053414;28;20037;-65
2023/06/25 03:07:57;;;;;;;21.80;14.45;;;18.40;99.90;;;;;;5051834;28;20033;-65
2023/06/25 03:10:25;;;;;;;19.52;13.35;;;18.40;99.90;;;;;;5047057;28;20591;-65
2023/06/25 03:12:51;;;;;;;21.25;14.45;;;18.40;99.90;;;;;;5051709;28;20036;-64
2023/06/25 03:15:17;;;;;;;20.58;14.10;;;18.40;99.90;;;;;;5052868;28;20135;-65
2023/06/25 03:17:44;;;;;;;21.20;14.80;;;18.30;99.90;;;;;;5052843;28;20610;-65
2023/06/25 03:20:10;;;;;;;21.05;14.55;;;18.30;99.90;;;;;;5047564;28;20029;-65
2023/06/25 03:22:36;;;;;;;19.23;13.77;;;18.30;99.90;;;;;;5047294;28;20123;-64
2023/06/25 03:25:03;;;;;;;21.50;13.77;;;18.30;99.90;;;;;;5044251;28;20061;-64
2023/06/25 03:27:29;;;;;;;19.35;14.23;;;18.30;99.90;;;;;;5052965;28;20036;-64
2023/06/25 03:29:55;;;;;;;23.13;15.13;;;18.30;99.90;;;;;;5049671;28;20434;-65
2023/06/25 03:32:21;;;;;;;25.35;13.90;;;18.20;99.90;;;;;;5047132;28;20036;-64
2023/06/25 03:34:46;;;;;;;21.10;13.63;;;18.20;99.90;;;;;;5051669;28;20033;-65
2023/06/25 03:37:12;;;;;;;20.60;13.27;;;18.30;99.90;;;;;;5048720;28;20025;-65
2023/06/25 03:39:37;;;;;;;19.92;13.68;;;18.30;99.90;;;;;;5047439;28;20025;-65
2023/06/25 03:42:03;;;;;;;24.95;14.27;;;18.20;99.90;;;;;;5049387;28;20556;-64
2023/06/25 03:44:29;;;;;;;21.77;14.88;;;18.20;99.90;;;;;;5047544;28;20379;-65
2023/06/25 03:46:54;;;;;;;21.17;13.63;;;18.30;99.90;;;;;;5053759;28;20433;-64
2023/06/25 03:49:20;;;;;;;25.85;14.30;;;18.30;99.90;;;;;;5052443;28;20059;-64
2023/06/25 03:51:46;;;;;;;21.55;13.90;;;18.30;99.90;;;;;;5052514;28;20029;-64
2023/06/25 03:54:11;;;;;;;21.67;13.63;;;18.30;99.90;;;;;;5043518;28;20037;-64
2023/06/25 03:56:37;;;;;;;23.90;14.57;;;18.20;99.90;;;;;;5047761;28;20087;-65
2023/06/25 03:59:02;;;;;;;20.00;13.93;;;18.30;99.90;;;;;;5052017;28;20052;-64
2023/06/25 04:01:28;;;;;;;21.20;14.07;;;18.30;99.90;;;;;;5051610;28;20115;-64
2023/06/25 04:03:54;;;;;;;18.75;13.43;;;18.20;99.90;;;;;;5050217;28;20037;-65
2023/06/25 04:06:19;;;;;;;24.45;13.95;;;18.20;99.90;;;;;;5051181;28;20090;-65
2023/06/25 04:08:45;;;;;;;19.55;12.85;;;18.30;99.90;;;;;;5040247;28;20522;-64
2023/06/25 04:13:38;;;;;;;17.90;13.05;;;18.30;99.90;;;;;;5045807;28;20049;-59
2023/06/25 04:16:07;;;;;;;21.85;14.20;;;18.30;99.90;;;;;;5047295;28;20036;-59
2023/06/25 04:18:32;;;;;;;19.10;13.50;;;18.40;99.90;;;;;;5038347;28;20557;-59
2023/06/25 04:20:58;;;;;;;19.80;13.65;;;18.40;99.90;;;;;;5038780;28;20037;-59
2023/06/25 04:23:23;;;;;;;19.90;12.98;;;18.40;99.90;;;;;;5040493;28;20049;-59
2023/06/25 04:25:49;;;;;;;19.13;13.38;;;18.50;99.90;;;;;;5040344;28;20041;-59
2023/06/25 04:28:17;;;;;;;22.38;13.32;;;18.50;99.90;;;;;;5047724;28;20067;-59
2023/06/25 04:30:43;;;;;;;18.83;12.45;;;18.50;99.90;;;;;;5049307;28;20045;-59
2023/06/25 04:33:09;;;;;;;21.48;13.63;;;18.50;99.90;;;;;;5042035;28;20414;-59
2023/06/25 04:35:34;;;;;;;18.83;12.90;;;18.60;99.90;;;;;;5052252;28;20029;-59
2023/06/25 04:38:00;;;;;;;21.98;14.63;;;18.60;99.90;;;;;;5051831;28;20048;-59
2023/06/25 04:40:26;;;;;;;20.08;12.95;;;18.60;99.90;;;;;;5052224;28;20441;-59
2023/06/25 04:42:51;;;;;;;20.45;13.55;;;18.70;99.90;;;;;;5052635;28;20064;-59
2023/06/25 04:45:18;;;;;;;18.85;13.27;;;18.70;99.90;;;;;;5024875;28;20475;-59
2023/06/25 04:47:43;;;;;;;17.92;13.20;;;18.70;99.90;;;;;;5043369;28;20037;-59
2023/06/25 04:50:10;;;;;;;19.33;13.02;;;18.80;99.90;;;;;;5049643;28;20099;-59
2023/06/25 04:52:35;;;;;;;19.70;13.80;;;18.90;99.90;;;;;;5051141;28;20036;-59
2023/06/25 04:55:01;;;;;;;21.20;12.75;;;18.90;99.90;;;;;;5050362;28;20137;-59
2023/06/25 04:57:27;;;;;;;18.50;13.30;;;19.00;99.90;;;;;;5051495;28;20036;-59
2023/06/25 04:59:52;;;;;;;19.25;12.57;;;19.10;99.90;;;;;;5051118;28;20079;-58
2023/06/25 05:02:18;;;;;;;22.77;13.75;;;19.10;99.90;;;;;;5046544;28;20025;-59
2023/06/25 05:04:44;;;;;;;17.48;11.45;;;19.30;99.90;;;;;;5043858;28;20045;-59
2023/06/25 05:07:10;;;;;;;18.10;13.00;;;19.40;99.90;;;;;;5032103;28;20041;-59
2023/06/25 05:09:35;;;;;;;17.67;12.95;;;19.50;99.90;;;;;;5045654;28;20087;-59
2023/06/25 05:12:01;;;;;;;19.15;12.85;;;19.60;99.90;;;;;;5046780;28;20045;-59
2023/06/25 05:14:27;;;;;;;17.63;12.10;;;19.80;99.90;;;;;;5045122;28;20043;-59
2023/06/25 05:16:53;;;;;;;17.17;12.30;;;19.90;99.90;;;;;;5052082;28;20041;-59
2023/06/25 05:19:18;;;;;;;18.05;12.65;;;20.00;99.90;;;;;;5051547;28;20040;-59
2023/06/25 05:21:44;;;;;;;16.88;12.07;;;20.10;99.90;;;;;;5042656;28;20041;-60
2023/06/25 05:24:10;;;;;;;18.42;12.18;;;20.20;99.90;;;;;;5044485;28;20044;-59
2023/06/25 05:26:35;;;;;;;18.30;12.77;;;20.30;99.90;;;;;;5047796;28;20041;-59
2023/06/25 05:29:02;;;;;;;20.58;12.98;;;20.50;99.90;;;;;;5049480;28;20055;-59
2023/06/25 05:31:28;;;;;;;19.77;13.20;;;20.60;99.90;;;;;;5045758;28;20498;-59
2023/06/25 05:33:54;;;;;;;22.45;12.80;;;20.80;99.90;;;;;;5048294;28;20495;-59
2023/06/25 05:36:19;;;;;;;20.52;12.82;;;21.00;99.90;;;;;;5044367;28;20071;-59
2023/06/25 05:38:45;;;;;;;19.80;13.13;;;21.20;99.90;;;;;;5047260;28;20402;-59
2023/06/25 05:41:10;;;;;;;18.90;13.18;;;21.30;99.90;;;;;;5029524;28;20045;-59
2023/06/25 05:43:36;;;;;;;22.92;14.10;;;21.50;99.90;;;;;;5049546;28;20037;-59
2023/06/25 05:46:02;;;;;;;17.95;13.35;;;21.50;99.90;;;;;;5050269;28;20052;-59
2023/06/25 05:48:27;;;;;;;19.67;13.75;;;21.60;99.90;;;;;;5048993;28;20120;-59
2023/06/25 05:50:53;;;;;;;21.42;14.30;;;21.70;99.90;;;;;;5045517;28;20395;-59
2023/06/25 05:53:19;;;;;;;21.13;14.73;;;21.70;99.90;;;;;;5047851;28;20068;-59
2023/06/25 05:55:44;;;;;;;24.33;13.57;;;21.70;99.90;;;;;;5045175;28;20037;-59
2023/06/25 05:58:16;;;;;;;19.55;14.05;;;21.80;99.90;;;;;;5050124;28;20033;-59
2023/06/25 06:00:41;;;;;;;20.63;14.40;;;21.90;99.90;;;;;;5040371;28;20033;-59
2023/06/25 06:03:07;;;;;;;16.55;13.02;;;21.90;99.90;;;;;;5038137;28;20463;-59
2023/06/25 06:05:33;;;;;;;20.83;14.13;;;22.00;99.90;;;;;;5041506;28;20041;-59
2023/06/25 06:07:58;;;;;;;18.67;13.70;;;22.10;99.90;;;;;;5045239;28;20037;-59
2023/06/25 06:10:24;;;;;;;20.83;14.93;;;22.10;99.90;;;;;;5049630;28;20105;-59
2023/06/25 06:12:49;;;;;;;21.58;14.38;;;22.20;99.90;;;;;;5043191;28;20056;-62
2023/06/25 06:15:16;;;;;;;23.00;15.77;;;22.20;99.90;;;;;;5050375;28;20482;-62
2023/06/25 06:17:42;;;;;;;24.05;15.60;;;22.30;99.90;;;;;;5045022;28;20048;-62
2023/06/25 06:20:08;;;;;;;22.55;15.48;;;22.30;99.90;;;;;;5025840;28;20048;-62
2023/06/25 06:22:33;;;;;;;21.17;14.68;;;22.40;99.90;;;;;;5050134;28;20504;-62
2023/06/25 06:24:59;;;;;;;21.50;14.93;;;22.50;99.90;;;;;;5049275;28;20036;-63
2023/06/25 06:27:25;;;;;;;20.08;14.88;;;22.60;99.90;;;;;;5051224;28;20033;-62
2023/06/25 06:29:50;;;;;;;20.25;14.52;;;22.60;99.90;;;;;;5046033;28;20442;-62
2023/06/25 06:32:16;;;;;;;19.10;15.68;;;22.80;99.90;;;;;;5050240;28;20037;-62
2023/06/25 06:34:41;;;;;;;23.08;16.05;;;22.90;99.90;;;;;;5040375;28;20064;-62
2023/06/25 06:37:07;;;;;;;19.23;16.08;;;22.90;99.90;;;;;;5047882;28;20086;-62
2023/06/25 06:39:33;;;;;;;18.63;15.63;;;23.00;99.90;;;;;;5049090;28;20040;-62
2023/06/25 06:41:59;;;;;;;21.33;16.30;;;23.10;99.90;;;;;;5035989;28;20753;-62
2023/06/25 06:44:25;;;;;;;20.58;16.58;;;23.20;99.90;;;;;;5051941;28;20040;-62
2023/06/25 06:46:51;;;;;;;20.88;16.30;;;23.20;99.90;;;;;;5047032;28;20138;-63
2023/06/25 06:49:17;;;;;;;22.13;16.70;;;23.30;99.90;;;;;;5054498;28;20037;-62
2023/06/25 06:51:44;;;;;;;21.35;16.45;;;23.40;99.90;;;;;;5053112;28;20082;-62
2023/06/25 06:54:09;;;;;;;22.10;17.48;;;23.40;99.90;;;;;;5036265;28;20037;-63
2023/06/25 06:56:35;;;;;;;22.25;17.45;;;23.50;99.90;;;;;;5054610;28;20033;-62
2023/06/25 06:59:01;;;;;;;21.90;16.90;;;23.60;99.90;;;;;;5050690;28;20033;-62
2023/06/25 07:01:27;;;;;;;22.17;16.92;;;23.70;99.90;;;;;;5017014;28;20041;-62
2023/06/25 07:03:52;;;;;;;22.20;15.77;;;23.80;99.90;;;;;;5043816;28;20112;-62
2023/06/25 07:06:19;;;;;;;20.92;16.27;;;24.00;99.90;;;;;;5029266;28;20499;-62
2023/06/25 07:08:44;;;;;;;21.40;16.48;;;24.10;99.90;;;;;;5050343;28;20043;-62
2023/06/25 07:11:10;;;;;;;21.90;16.85;;;24.20;99.90;;;;;;5034329;28;20124;-62
2023/06/25 07:13:35;;;;;;;21.42;17.25;;;24.40;99.90;;;;;;5049068;28;20076;-62
2023/06/25 07:16:01;;;;;;;21.27;16.60;;;24.40;99.90;;;;;;5052543;28;20037;-62
2023/06/25 07:18:27;;;;;;;21.10;16.33;;;24.60;99.90;;;;;;5029924;28;20036;-62
2023/06/25 07:20:53;;;;;;;21.63;16.88;;;24.70;99.90;;;;;;5043948;28;20033;-62
2023/06/25 07:23:18;;;;;;;21.45;17.15;;;24.90;99.90;;;;;;5049728;28;20041;-62
2023/06/25 07:25:44;;;;;;;19.50;16.65;;;25.00;99.90;;;;;;5046722;28;20037;-62
2023/06/25 07:28:09;;;;;;;17.35;15.32;;;25.00;99.90;;;;;;5051644;28;20040;-63
2023/06/25 07:30:35;;;;;;;20.63;16.38;;;25.20;99.90;;;;;;5047346;28;20036;-62
2023/06/25 07:33:03;;;;;;;20.10;15.40;;;25.30;99.90;;;;;;5051744;28;20132;-62
2023/06/25 07:35:28;;;;;;;20.20;16.55;;;25.40;99.90;;;;;;5046330;28;20192;-62
2023/06/25 07:37:54;;;;;;;19.88;16.33;;;25.40;99.90;;;;;;5044929;28;20457;-62
2023/06/25 07:40:20;;;;;;;20.55;16.58;;;25.60;99.90;;;;;;5050036;28;20092;-63
2023/06/25 07:42:45;;;;;;;17.77;14.63;;;25.60;99.90;;;;;;5045145;28;20127;-63
2023/06/25 07:45:11;;;;;;;16.20;14.00;;;25.80;99.90;;;;;;5048013;28;20495;-62
2023/06/25 07:47:43;;;;;;;18.00;14.73;;;26.00;99.90;;;;;;5044838;28;20037;-61
2023/06/25 07:50:09;;;;;;;16.10;12.75;;;26.10;99.90;;;;;;5029835;28;20045;-62
2023/06/25 07:52:34;;;;;;;19.15;13.75;;;26.10;99.90;;;;;;5053682;28;20033;-62
2023/06/25 07:55:00;;;;;;;16.23;13.48;;;26.20;99.90;;;;;;5038225;28;20041;-62
2023/06/25 07:57:25;;;;;;;19.95;14.00;;;26.20;99.90;;;;;;5033649;28;20049;-62
2023/06/25 07:59:53;;;;;;;19.08;14.00;;;26.30;99.90;;;;;;5041847;28;20150;-62
2023/06/25 08:02:19;;;;;;;13.98;12.20;;;26.50;99.90;;;;;;5035116;28;20041;-62
2023/06/25 08:04:44;;;;;;;16.42;13.65;;;26.60;99.90;;;;;;5047033;28;20037;-62
2023/06/25 08:07:10;;;;;;;18.25;13.48;;;26.80;99.90;;;;;;5029926;28;20464;-62
2023/06/25 08:09:36;;;;;;;19.38;13.43;;;26.90;99.90;;;;;;5052838;28;20064;-62
2023/06/25 08:12:01;;;;;;;17.67;12.98;;;27.00;99.90;;;;;;5038568;28;20033;-63
2023/06/25 08:14:27;;;;;;;14.73;12.30;;;27.10;99.90;;;;;;5052925;28;20092;-63
2023/06/25 08:16:53;;;;;;;16.05;13.38;;;27.20;99.90;;;;;;5047768;28;20051;-63
2023/06/25 08:19:18;;;;;;;14.45;12.00;;;27.30;99.90;;;;;;5033077;28;20119;-63
2023/06/25 08:21:44;;;;;;;13.95;11.20;;;27.40;99.70;;;;;;5032871;28;20549;-63
2023/06/25 08:24:10;;;;;;;13.18;10.57;;;27.50;98.70;;;;;;5015292;28;20116;-63
2023/06/25 08:26:35;;;;;;;15.43;11.38;;;27.60;98.80;;;;;;5033085;28;20557;-63
2023/06/25 08:29:01;;;;;;;12.10;9.85;;;27.70;97.90;;;;;;5033668;28;20046;-63
2023/06/25 08:31:26;;;;;;;12.68;8.85;;;27.80;97.10;;;;;;5032848;28;20041;-63
2023/06/25 08:33:52;;;;;;;10.60;8.68;;;27.90;95.00;;;;;;5032824;28;20955;-63
2023/06/25 08:36:18;;;;;;;12.40;9.52;;;27.90;94.40;;;;;;5039869;28;20041;-63
2023/06/25 08:38:43;;;;;;;11.95;8.77;;;28.10;94.10;;;;;;5052922;28;20040;-63
2023/06/25 08:41:09;;;;;;;10.48;8.05;;;28.20;94.30;;;;;;5043005;28;20037;-63
2023/06/25 08:43:35;;;;;;;12.98;8.60;;;28.30;93.10;;;;;;5049314;28;20443;-63
2023/06/25 08:46:02;;;;;;;9.00;7.18;;;28.50;92.20;;;;;;5051357;28;20229;-63
2023/06/25 08:48:31;;;;;;;11.13;7.22;;;28.70;91.30;;;;;;5024429;28;20040;-63
2023/06/25 08:51:03;;;;;;;9.40;7.93;;;28.80;88.60;;;;;;5050897;28;20037;-63
2023/06/25 08:53:30;;;;;;;12.13;7.07;;;28.90;87.90;;;;;;5044339;28;20053;-63
2023/06/25 08:55:56;;;;;;;9.10;7.22;;;28.90;87.00;;;;;;5045945;28;20037;-64
2023/06/25 08:58:22;;;;;;;8.70;6.78;;;28.90;85.70;;;;;;5026194;28;20042;-64
2023/06/25 09:00:48;;;;;;;9.30;6.85;;;29.00;85.10;;;;;;5051295;28;20031;-64
2023/06/25 09:03:14;;;;;;;9.05;5.82;;;29.00;83.70;;;;;;5040308;28;20116;-65
2023/06/25 09:05:50;;;;;;;6.30;5.07;;;29.00;79.80;;;;;;5051508;28;20514;-65
2023/06/25 09:08:16;;;;;;;6.15;4.57;;;29.00;75.70;;;;;;5041301;28;20079;-65
2023/06/25 09:10:41;;;;;;;7.47;5.03;;;28.90;73.20;;;;;;5048303;28;20036;-65
2023/06/25 09:13:07;;;;;;;9.02;5.25;;;29.00;72.50;;;;;;5050574;28;20033;-65
2023/06/25 09:15:32;;;;;;;6.78;5.30;;;29.10;71.30;;;;;;5047879;28;20398;-64
2023/06/25 09:17:58;;;;;;;7.00;5.03;;;29.30;71.90;;;;;;5051466;28;20032;-65
2023/06/25 09:20:24;;;;;;;5.28;4.78;;;29.40;71.10;;;;;;5034118;28;20475;-65
2023/06/25 09:22:56;;;;;;;11.88;4.90;;;29.50;69.20;;;;;;5031889;28;20497;-65
2023/06/25 09:25:28;;;;;;;8.40;5.03;;;29.60;69.70;;;;;;5047289;28;20029;-65
2023/06/25 09:28:00;;;;;;;7.30;5.50;;;29.70;70.20;;;;;;5050979;28;20033;-64
2023/06/25 09:30:26;;;;;;;6.20;4.78;;;29.70;67.70;;;;;;5050754;28;20087;-65
2023/06/25 09:32:52;;;;;;;6.72;4.90;;;29.70;66.20;;;;;;5048297;28;20037;-65
2023/06/25 09:35:23;;;;;;;6.60;5.03;;;29.70;66.90;;;;;;5051032;28;20491;-65
2023/06/25 09:37:53;;;;;;;8.68;5.55;;;29.80;66.70;;;;;;5049241;28;20060;-65
2023/06/25 09:40:19;;;;;;;6.47;4.85;;;29.90;65.00;;;;;;5050141;28;20461;-65
2023/06/25 09:42:47;;;;;;;7.35;5.15;;;30.00;64.10;;;;;;5032682;28;20063;-64
2023/06/25 09:45:17;;;;;;;7.40;4.60;;;30.00;63.20;;;;;;5031008;28;20041;-65
2023/06/25 09:47:46;;;;;;;8.75;5.18;;;30.00;64.00;;;;;;5049868;28;20590;-64
2023/06/25 09:50:17;;;;;;;8.02;5.28;;;30.00;62.90;;;;;;5046694;28;20037;-64
2023/06/25 09:52:50;;;;;;;8.98;5.70;;;30.00;63.60;;;;;;5031205;28;20395;-65
2023/06/25 09:55:17;;;;;;;9.48;5.72;;;30.00;62.30;;;;;;5044992;28;20113;-64
2023/06/25 09:57:43;;;;;;;7.38;5.88;;;30.10;62.30;;;;;;5048761;28;20112;-64
2023/06/25 10:00:10;;;;;;;6.47;4.72;;;30.00;61.70;;;;;;5050562;28;20041;-65
2023/06/25 10:02:36;;;;;;;6.45;4.22;;;30.10;62.30;;;;;;5013647;28;20033;-65
2023/06/25 10:05:03;;;;;;;8.43;5.35;;;30.20;62.40;;;;;;5032281;28;20045;-65
2023/06/25 10:07:30;;;;;;;7.47;4.68;;;30.30;61.50;;;;;;5024246;28;20043;-65
2023/06/25 10:09:56;;;;;;;8.40;5.38;;;30.30;61.20;;;;;;5052407;28;20041;-65
2023/06/25 10:12:22;;;;;;;7.07;4.78;;;30.40;60.80;;;;;;5050646;28;20033;-65
2023/06/25 10:14:48;;;;;;;8.13;4.63;;;30.40;61.30;;;;;;5049296;28;20414;-65
2023/06/25 10:17:14;;;;;;;8.60;5.13;;;30.40;61.30;;;;;;5046874;28;20045;-65
2023/06/25 10:19:55;;;;;;;7.80;4.88;;;30.50;61.10;;;;;;5051556;28;20033;-64
2023/06/25 10:22:26;;;;;;;6.20;4.70;;;30.60;61.20;;;;;;5039984;28;20092;-64
2023/06/25 10:24:53;;;;;;;8.52;5.20;;;30.80;59.70;;;;;;5050395;28;20052;-64
2023/06/25 10:27:25;;;;;;;7.55;5.25;;;30.80;59.20;;;;;;5035562;28;20037;-64
2023/06/25 10:29:52;;;;;;;9.80;5.00;;;30.80;58.80;;;;;;5035299;22;20062;-65
2023/06/25 10:32:28;;;;;;;6.97;4.95;;;30.70;59.90;;;;;;5001032;28;20092;-65
2023/06/25 10:35:01;;;;;;;6.88;4.90;;;30.80;59.50;;;;;;5005603;28;20125;-65
2023/06/25 10:37:30;;;;;;;7.43;5.13;;;30.80;59.20;;;;;;5006145;28;20396;-65
2023/06/25 10:40:10;;;;;;;8.70;4.55;;;30.80;59.00;;;;;;4996741;28;20088;-65
2023/06/25 10:42:36;;;;;;;5.75;4.60;;;30.90;55.00;;;;;;5008558;28;20562;-65
2023/06/25 10:45:03;;;;;;;6.75;4.63;;;30.90;56.80;;;;;;5012242;28;20084;-65
2023/06/25 10:47:29;;;;;;;6.88;5.30;;;30.90;56.20;;;;;;4999473;28;20038;-65
2023/06/25 10:49:54;;;;;;;6.82;4.60;;;31.10;56.70;;;;;;5012634;28;20048;-64
2023/06/25 10:52:20;;;;;;;8.27;4.68;;;31.10;57.50;;;;;;5011684;28;20069;-65
2023/06/25 10:54:46;;;;;;;6.40;4.53;;;31.20;57.90;;;;;;4995199;28;20034;-65
2023/06/25 10:57:14;;;;;;;4.97;4.00;;;31.30;56.70;;;;;;5013054;28;20100;-65
2023/06/25 10:59:44;;;;;;;6.47;4.18;;;31.30;55.50;;;;;;5011017;28;20034;-65
2023/06/25 11:02:16;;;;;;;5.55;4.30;;;31.30;54.50;;;;;;4996189;28;20049;-65
2023/06/25 11:04:48;;;;;;;5.68;4.30;;;31.30;54.90;;;;;;5014770;28;20117;-65
2023/06/25 11:07:14;;;;;;;7.00;4.20;;;31.30;55.00;;;;;;5011247;28;20041;-64
2023/06/25 11:09:40;;;;;;;7.28;4.50;;;31.30;55.00;;;;;;5012797;28;20558;-64
2023/06/25 11:12:06;;;;;;;5.13;4.28;;;31.30;54.70;;;;;;5004854;28;20038;-65
2023/06/25 11:14:33;;;;;;;7.13;4.50;;;31.40;54.30;;;;;;4975095;28;20034;-65
2023/06/25 11:16:59;;;;;;;5.78;4.20;;;31.50;54.10;;;;;;5009199;28;20038;-65
2023/06/25 11:19:26;;;;;;;6.68;4.80;;;31.40;55.40;;;;;;4986448;28;20357;-65
2023/06/25 11:21:51;;;;;;;5.70;4.57;;;31.40;56.30;;;;;;5001924;28;20037;-65
2023/06/25 11:24:17;;;;;;;5.15;4.38;;;31.50;57.40;;;;;;5012471;28;20261;-65
2023/06/25 11:26:43;;;;;;;6.30;4.72;;;31.50;56.40;;;;;;5013105;28;20033;-65
2023/06/25 11:29:10;;;;;;;7.68;4.55;;;31.50;55.60;;;;;;5014051;28;20484;-65
2023/06/25 11:31:52;;;;;;;5.68;4.47;;;31.50;55.70;;;;;;5013606;28;20042;-65
2023/06/25 11:34:25;;;;;;;6.10;4.30;;;31.50;55.90;;;;;;4989169;28;20044;-65
2023/06/25 11:36:51;;;;;;;8.30;4.85;;;31.50;56.60;;;;;;5014170;28;20488;-65
2023/06/25 11:39:18;;;;;;;8.45;4.72;;;31.60;56.90;;;;;;4993275;28;20048;-65
2023/06/25 11:41:44;;;;;;;5.38;4.60;;;31.70;56.60;;;;;;4994269;28;20508;-65
2023/06/25 11:44:20;;;;;;;6.65;5.15;;;31.70;56.30;;;;;;5012768;28;20049;-65
2023/06/25 11:46:52;;;;;;;6.43;5.10;;;31.80;56.10;;;;;;5013123;28;20038;-65
2023/06/25 11:49:21;;;;;;;5.82;4.82;;;31.70;56.10;;;;;;5006282;28;20064;-65
2023/06/25 11:51:52;;;;;;;5.13;4.50;;;31.60;55.30;;;;;;5012305;28;20041;-65
2023/06/25 11:54:18;;;;;;;7.20;4.72;;;31.60;55.80;;;;;;5008828;28;20305;-65
2023/06/25 11:56:43;;;;;;;5.72;4.68;;;31.70;56.90;;;;;;5013407;28;20041;-65
2023/06/25 11:59:09;;;;;;;8.90;4.80;;;31.70;56.90;;;;;;4993540;28;20117;-65
2023/06/25 12:01:34;;;;;;;6.25;4.82;;;31.80;57.00;;;;;;4994463;28;20038;-65
2023/06/25 12:04:00;;;;;;;8.38;4.80;;;31.90;56.90;;;;;;5002677;28;20033;-65
2023/06/25 12:06:26;;;;;;;4.95;4.45;;;31.90;56.80;;;;;;5007045;28;20037;-65
2023/06/25 12:08:51;;;;;;;5.97;4.85;;;31.90;56.20;;;;;;5012493;28;20061;-65
2023/06/25 12:11:17;;;;;;;5.82;4.65;;;31.90;56.40;;;;;;5011958;28;20052;-65
2023/06/25 12:13:43;;;;;;;6.68;4.60;;;31.90;55.60;;;;;;5012248;28;20479;-65
2023/06/25 12:16:09;;;;;;;5.45;4.53;;;31.90;55.10;;;;;;4989194;28;20053;-65
2023/06/25 12:18:34;;;;;;;5.82;4.35;;;31.90;55.30;;;;;;5011793;28;20121;-65
2023/06/25 12:21:00;;;;;;;5.90;4.72;;;32.00;54.50;;;;;;5010096;28;20041;-65
2023/06/25 12:23:25;;;;;;;8.75;4.32;;;32.00;54.10;;;;;;5011108;28;20121;-65
2023/06/25 12:25:51;;;;;;;5.25;4.75;;;31.90;53.90;;;;;;5000125;28;20037;-64
2023/06/25 12:28:16;;;;;;;6.43;4.53;;;32.00;55.10;;;;;;5012074;28;20107;-66
2023/06/25 12:30:42;;;;;;;6.50;5.15;;;32.00;54.60;;;;;;5007148;28;20048;-65
2023/06/25 12:33:08;;;;;;;5.32;4.47;;;32.00;54.40;;;;;;4987624;28;20056;-65
2023/06/25 12:35:34;;;;;;;5.30;4.40;;;31.90;55.00;;;;;;5011678;28;20034;-65